Time;durP1;ratioP1;P1;durP2;ratioP2;P2;SDS_P1;SDS_P2;PMS_P1;PMS_P2;Temp;Humidity;BMP_temperature;BMP_pressure;BME280_temperature;BME280_humidity;BME280_pressure;Samples;Min_cycle;Max_cycle;Signal;HPM_P1;HPM_P2
2022/12/21 00:01:30;;;;;;;77.72;29.90;;;;;;;-1.81;nan;101490.63;5045013;28;20029;-71
2022/12/21 00:04:00;;;;;;;63.35;26.77;;;;;;;-1.93;nan;101471.75;5062088;28;20052;-71
2022/12/21 00:06:28;;;;;;;70.35;27.63;;;;;;;-1.79;nan;101485.38;5049187;28;20117;-71
2022/12/21 00:08:55;;;;;;;67.13;26.92;;;;;;;-1.83;nan;101489.94;5065091;28;20378;-71
2022/12/21 00:11:22;;;;;;;68.28;27.63;;;;;;;-1.81;nan;101482.06;5065621;28;20851;-71
2022/12/21 00:13:48;;;;;;;68.35;26.65;;;;;;;-1.91;nan;101473.41;5063875;28;20121;-71
2022/12/21 00:16:16;;;;;;;62.35;24.60;;;;;;;-1.94;nan;101475.28;5064247;28;20040;-71
2022/12/21 00:18:42;;;;;;;65.30;25.90;;;;;;;-2.23;nan;101436.16;5064924;28;20033;-71
2022/12/21 00:21:22;;;;;;;63.03;26.15;;;;;;;-2.10;nan;101454.16;5047633;28;20039;-71
2022/12/21 00:23:50;;;;;;;60.25;24.27;;;;;;;-2.24;nan;101447.44;5047000;28;20108;-71
2022/12/21 00:26:19;;;;;;;64.03;26.42;;;;;;;-2.21;nan;101461.88;5049004;28;20021;-71
2022/12/21 00:28:44;;;;;;;58.85;24.60;;;;;;;-2.24;nan;101465.50;5066055;28;20032;-70
2022/12/21 00:31:15;;;;;;;62.15;25.17;;;;;;;-2.26;nan;101462.22;5066762;28;20089;-70
2022/12/21 00:33:42;;;;;;;54.00;23.83;;;;;;;-2.27;nan;101470.91;5065039;28;20390;-70
2022/12/21 00:36:10;;;;;;;54.35;22.90;;;;;;;-2.39;nan;101444.25;5063233;28;20036;-70
2022/12/21 00:38:36;;;;;;;63.20;25.33;;;;;;;-2.24;nan;101456.94;5063240;28;20029;-70
2022/12/21 00:41:05;;;;;;;63.85;25.48;;;;;;;-2.34;nan;101437.94;5064047;28;20027;-70
2022/12/21 00:43:32;;;;;;;51.88;23.30;;;;;;;-2.21;nan;101451.53;5066614;28;20482;-70
2022/12/21 00:45:58;;;;;;;64.70;25.23;;;;;;;-2.23;nan;101456.81;5065368;28;20056;-70
2022/12/21 00:48:24;;;;;;;64.07;24.48;;;;;;;-2.17;nan;101465.88;5067594;28;20059;-70
2022/12/21 00:50:50;;;;;;;61.17;25.70;;;;;;;-2.43;nan;101413.66;5066874;28;20172;-71
2022/12/21 00:53:16;;;;;;;58.28;25.00;;;;;;;-2.22;nan;101449.91;5047149;28;20025;-71
2022/12/21 00:55:51;;;;;;;59.75;24.63;;;;;;;-2.12;nan;101471.50;5064433;28;20450;-71
2022/12/21 00:58:17;;;;;;;57.65;24.00;;;;;;;-2.45;nan;101423.25;5067054;28;20094;-70
2022/12/21 01:00:42;;;;;;;59.22;25.20;;;;;;;-2.15;nan;101464.00;5069941;28;20387;-71
2022/12/21 01:03:08;;;;;;;59.08;24.63;;;;;;;-2.09;nan;101473.03;5065196;28;20019;-71
2022/12/21 01:05:33;;;;;;;66.50;25.00;;;;;;;-2.10;nan;101461.88;5066204;28;20458;-71
2022/12/21 01:07:58;;;;;;;58.63;24.83;;;;;;;-2.22;nan;101455.06;5069608;28;20380;-71
2022/12/21 01:10:24;;;;;;;63.88;25.55;;;;;;;-2.19;nan;101460.00;5047282;28;20048;-70
2022/12/21 01:12:49;;;;;;;62.03;25.50;;;;;;;-2.18;nan;101457.31;5060880;28;20029;-70
2022/12/21 01:15:14;;;;;;;66.35;25.50;;;;;;;-2.18;nan;101446.16;5049648;28;20025;-71
2022/12/21 01:17:40;;;;;;;66.13;25.90;;;;;;;-2.12;nan;101437.13;5067565;28;20024;-70
2022/12/21 01:20:06;;;;;;;65.25;27.38;;;;;;;-2.12;nan;101426.81;5066977;28;20112;-71
2022/12/21 01:22:32;;;;;;;65.47;25.35;;;;;;;-2.09;nan;101421.41;5068647;28;20052;-70
2022/12/21 01:24:57;;;;;;;63.55;25.08;;;;;;;-2.16;nan;101416.69;5066991;28;20053;-69
2022/12/21 01:27:23;;;;;;;63.25;25.73;;;;;;;-2.22;nan;101409.44;5060449;28;20028;-70
2022/12/21 01:29:48;;;;;;;59.08;25.55;;;;;;;-2.24;nan;101400.19;5068721;28;20028;-71
2022/12/21 01:32:14;;;;;;;61.35;25.83;;;;;;;-2.38;nan;101386.56;5066086;28;20067;-71
2022/12/21 01:34:39;;;;;;;54.88;23.55;;;;;;;-2.38;nan;101376.25;5065110;28;20110;-70
2022/12/21 01:37:04;;;;;;;60.45;24.83;;;;;;;-2.31;nan;101384.34;5064133;28;20043;-70
2022/12/21 01:39:30;;;;;;;56.22;23.88;;;;;;;-2.31;nan;101378.38;5051276;28;20036;-71
2022/12/21 01:41:55;;;;;;;61.55;25.65;;;;;;;-2.37;nan;101380.47;5067907;28;20035;-70
2022/12/21 01:44:59;;;;;;;62.03;24.75;;;;;;;-2.31;nan;101389.50;5045997;28;20182;-71
2022/12/21 01:47:29;;;;;;;68.65;25.48;;;;;;;-2.31;nan;101383.53;5065746;28;20024;-70
2022/12/21 01:50:00;;;;;;;65.28;26.83;;;;;;;-2.42;nan;101372.28;5068035;28;20032;-70
2022/12/21 01:52:27;;;;;;;67.80;25.67;;;;;;;-2.41;nan;101376.47;5066667;28;20031;-71
2022/12/21 01:54:59;;;;;;;60.00;24.90;;;;;;;-2.36;nan;101382.13;5062689;28;20024;-70
2022/12/21 01:57:29;;;;;;;63.60;24.73;;;;;;;-2.36;nan;101376.94;5054477;28;20052;-70
2022/12/21 01:59:58;;;;;;;61.78;25.67;;;;;;;-2.27;nan;101377.22;5068219;28;20098;-71
2022/12/21 02:02:28;;;;;;;63.97;25.00;;;;;;;-2.26;nan;101379.66;5070043;28;20035;-70
2022/12/21 02:04:59;;;;;;;61.13;24.83;;;;;;;-2.29;nan;101372.16;5067005;28;20699;-69
2022/12/21 02:07:24;;;;;;;60.83;24.52;;;;;;;-2.36;nan;101350.34;5065581;28;20099;-71
2022/12/21 02:09:53;;;;;;;57.15;23.10;;;;;;;-2.39;nan;101353.97;5052945;28;20144;-71
2022/12/21 02:12:19;;;;;;;64.03;25.05;;;;;;;-2.33;nan;101375.09;5063908;28;20791;-70
2022/12/21 02:14:47;;;;;;;61.40;24.10;;;;;;;-2.39;nan;101355.75;5050881;28;20492;-71
2022/12/21 02:17:36;;;;;;;57.85;23.48;;;;;;;-2.55;nan;101335.44;5065040;28;20363;-71
2022/12/21 02:20:38;;;;;;;38.10;16.65;;;;;;;-2.53;nan;101348.25;5009910;28;20048;-70
2022/12/21 02:23:35;;;;;;;60.60;24.05;;;;;;;-2.49;nan;101345.31;5068416;28;20090;-71
2022/12/21 02:26:36;;;;;;;60.65;23.30;;;;;;;-2.53;nan;101335.34;5031714;28;20071;-71
2022/12/21 02:29:01;;;;;;;59.50;23.30;;;;;;;-2.47;nan;101327.13;4966142;28;20772;-71
2022/12/21 02:31:37;;;;;;;64.78;24.60;;;;;;;-2.53;nan;101292.31;4966990;28;20054;-71
2022/12/21 02:34:09;;;;;;;57.08;23.45;;;;;;;-2.41;nan;101306.84;4953614;28;20069;-70
2022/12/21 02:36:54;;;;;;;55.58;23.33;;;;;;;-2.40;nan;101318.78;4969602;28;20034;-71
2022/12/21 02:39:44;;;;;;;55.47;23.35;;;;;;;-2.46;nan;101319.28;4969341;28;20069;-71
2022/12/21 02:45:42;;;;;;;62.28;22.40;;;;;;;-2.52;nan;101313.75;4931039;29;20062;-71
2022/12/21 02:48:19;;;;;;;57.65;23.35;;;;;;;-2.59;nan;101311.63;4931891;29;20074;-71
2022/12/21 02:50:52;;;;;;;56.35;23.15;;;;;;;-2.65;nan;101303.56;4934154;29;20043;-71
2022/12/21 02:53:22;;;;;;;59.03;23.45;;;;;;;-2.65;nan;101306.16;4934902;29;20031;-71
2022/12/21 02:55:47;;;;;;;63.13;24.08;;;;;;;-2.70;nan;101309.06;4938330;29;20506;-70
2022/12/21 02:58:23;;;;;;;64.05;24.02;;;;;;;-2.65;nan;101317.28;4922689;29;20058;-71
2022/12/21 03:00:52;;;;;;;57.78;24.08;;;;;;;-2.62;nan;101318.78;4919348;29;20027;-70
2022/12/21 03:04:01;;;;;;;62.88;25.25;;;;;;;-2.69;nan;101302.97;4943287;29;20039;-71
2022/12/21 03:06:45;;;;;;;58.03;23.92;;;;;;;-2.52;nan;101324.06;5005780;28;20116;-70
2022/12/21 03:09:29;;;;;;;63.15;24.38;;;;;;;-2.47;nan;101307.31;5007563;28;20034;-71
2022/12/21 03:12:16;;;;;;;68.28;25.50;;;;;;;-2.41;nan;101308.63;5009195;28;20041;-71
2022/12/21 03:14:50;;;;;;;69.07;24.23;;;;;;;-2.37;nan;101303.09;5008812;28;20050;-71
2022/12/21 03:17:40;;;;;;;61.67;24.25;;;;;;;-2.34;nan;101299.47;5006830;28;20556;-70
2022/12/21 03:20:24;;;;;;;61.75;25.33;;;;;;;-2.32;nan;101301.91;4991652;28;20512;-71
2022/12/21 03:22:57;;;;;;;58.13;23.48;;;;;;;-2.31;nan;101293.25;5065079;28;20067;-71
2022/12/21 03:25:26;;;;;;;63.33;25.45;;;;;;;-2.33;nan;101285.63;5066475;28;20036;-70
2022/12/21 03:27:56;;;;;;;67.07;25.77;;;;;;;-2.27;nan;101295.47;5046466;28;20039;-71
2022/12/21 03:30:23;;;;;;;60.10;24.40;;;;;;;-2.25;nan;101295.34;5066899;28;20040;-71
2022/12/21 03:32:59;;;;;;;66.72;26.08;;;;;;;-2.21;nan;101300.13;5061212;28;20021;-71
2022/12/21 03:35:42;;;;;;;60.55;24.20;;;;;;;-2.19;nan;101294.88;5048545;28;20029;-71
2022/12/21 03:38:26;;;;;;;68.55;25.85;;;;;;;-2.16;nan;101299.78;5066055;28;20355;-71
2022/12/21 03:40:55;;;;;;;57.08;23.52;;;;;;;-2.21;nan;101289.00;5065429;28;20036;-71
2022/12/21 03:43:25;;;;;;;61.47;24.45;;;;;;;-2.10;nan;101294.16;5065932;28;20402;-70
2022/12/21 03:45:57;;;;;;;61.97;24.60;;;;;;;-2.09;nan;101293.19;5068661;28;20059;-70
2022/12/21 03:48:36;;;;;;;58.70;24.15;;;;;;;-2.17;nan;101269.78;5068450;28;20027;-70
2022/12/21 03:51:12;;;;;;;62.88;23.77;;;;;;;-2.08;nan;101273.38;5048853;28;20032;-71
2022/12/21 03:53:44;;;;;;;64.00;25.90;;;;;;;-2.11;nan;101273.63;5066615;28;20063;-70
2022/12/21 03:56:18;;;;;;;65.95;25.70;;;;;;;-2.14;nan;101256.63;5046598;28;20033;-70
2022/12/21 03:58:44;;;;;;;64.82;25.83;;;;;;;-2.06;nan;101277.50;5067719;28;20127;-70
2022/12/21 04:01:25;;;;;;;63.83;26.10;;;;;;;-2.04;nan;101270.44;5064121;28;20169;-70
2022/12/21 04:03:56;;;;;;;64.63;25.63;;;;;;;-2.08;nan;101281.13;5050600;28;20035;-70
2022/12/21 04:06:26;;;;;;;65.00;26.20;;;;;;;-2.21;nan;101260.63;5066086;28;20028;-70
2022/12/21 04:08:52;;;;;;;66.00;26.75;;;;;;;-2.14;nan;101266.94;5050864;28;20033;-70
2022/12/21 04:14:17;;;;;;;61.47;25.20;;;;;;;-2.12;nan;101259.91;4998566;28;20052;-70
2022/12/21 04:16:42;;;;;;;66.82;26.25;;;;;;;-2.20;nan;101257.94;4988395;28;20780;-70
2022/12/21 04:21:51;;;;;;;58.13;24.42;;;;;;;-2.23;nan;101253.00;4992895;28;20057;-70
2022/12/21 04:29:56;;;;;;;70.03;26.90;;;;;;;-2.29;nan;101240.59;4949478;28;20043;-69
2022/12/21 04:32:21;;;;;;;73.22;28.35;;;;;;;-2.48;nan;101220.56;4933367;28;20094;-70
2022/12/21 04:34:46;;;;;;;69.97;26.65;;;;;;;-2.49;nan;101216.38;4949180;28;20046;-70
2022/12/21 04:39:56;;;;;;;61.95;24.98;;;;;;;-2.64;nan;101218.34;4950872;28;20477;-71
2022/12/21 04:42:22;;;;;;;62.30;25.63;;;;;;;-2.52;nan;101254.44;4949959;28;20027;-71
2022/12/21 04:44:47;;;;;;;67.60;26.80;;;;;;;-2.63;nan;101245.78;4949232;28;20058;-72
2022/12/21 04:47:13;;;;;;;67.30;26.98;;;;;;;-2.54;nan;101264.06;4948849;28;20035;-72
2022/12/21 04:49:38;;;;;;;68.85;25.95;;;;;;;-2.65;nan;101242.50;4962410;28;20481;-72
2022/12/21 04:52:04;;;;;;;58.10;24.80;;;;;;;-2.59;nan;101259.25;4987439;28;20027;-73
2022/12/21 04:54:29;;;;;;;59.78;25.15;;;;;;;-2.60;nan;101239.56;4987637;28;20113;-72
2022/12/21 04:56:54;;;;;;;69.80;26.75;;;;;;;-2.73;nan;101218.25;4986425;28;20030;-71
2022/12/21 04:59:20;;;;;;;72.78;27.73;;;;;;;-2.63;nan;101237.25;4986171;28;20042;-71
2022/12/21 05:01:45;;;;;;;67.45;25.35;;;;;;;-2.67;nan;101233.25;4987361;28;20158;-71
2022/12/21 05:04:10;;;;;;;68.10;26.58;;;;;;;-2.68;nan;101226.44;4987870;28;20038;-71
2022/12/21 05:06:36;;;;;;;65.63;26.35;;;;;;;-2.67;nan;101221.19;5014493;28;20056;-72
2022/12/21 05:09:02;;;;;;;67.63;26.30;;;;;;;-2.67;nan;101217.78;5066235;28;20073;-71
2022/12/21 05:11:27;;;;;;;70.57;26.65;;;;;;;-2.66;nan;101217.69;5065106;28;20020;-71
2022/12/21 05:13:53;;;;;;;65.22;25.73;;;;;;;-2.52;nan;101229.47;5064343;28;20025;-71
2022/12/21 05:16:21;;;;;;;67.80;25.80;;;;;;;-2.61;nan;101225.88;5057996;28;20029;-71
2022/12/21 05:18:52;;;;;;;49.40;19.43;;;;;;;-2.75;nan;101225.28;5061140;28;20382;-71
2022/12/21 05:21:17;;;;;;;70.93;26.63;;;;;;;-2.81;nan;101222.22;5060695;28;20075;-72
2022/12/21 05:23:43;;;;;;;69.05;27.95;;;;;;;-2.97;nan;101206.28;5047461;28;20066;-72
2022/12/21 05:26:09;;;;;;;72.88;27.98;;;;;;;-2.96;nan;101214.88;5050275;28;20035;-72
2022/12/21 05:28:35;;;;;;;72.43;28.25;;;;;;;-3.06;nan;101202.69;5063364;28;20471;-71
2022/12/21 05:31:03;;;;;;;75.45;27.10;;;;;;;-2.97;nan;101224.34;5067087;28;20043;-70
2022/12/21 05:33:28;;;;;;;80.82;29.00;;;;;;;-3.02;nan;101213.56;5065348;28;20036;-71
2022/12/21 05:35:54;;;;;;;70.78;27.50;;;;;;;-2.97;nan;101220.94;5042739;28;20028;-73
2022/12/21 05:38:19;;;;;;;75.00;27.38;;;;;;;-3.01;nan;101225.53;5067493;28;20099;-71
2022/12/21 05:40:54;;;;;;;72.90;26.08;;;;;;;-3.04;nan;101220.59;5047272;28;20020;-72
2022/12/21 05:43:20;;;;;;;66.97;27.08;;;;;;;-3.07;nan;101218.25;5066354;28;20127;-72
2022/12/21 05:45:45;;;;;;;66.07;26.27;;;;;;;-3.20;nan;101202.91;5050068;28;20111;-72
2022/12/21 05:48:11;;;;;;;65.07;25.80;;;;;;;-3.08;nan;101224.34;5066677;28;20493;-70
2022/12/21 05:50:40;;;;;;;64.18;26.63;;;;;;;-3.07;nan;101233.72;5066172;28;20036;-71
2022/12/21 05:53:06;;;;;;;68.88;26.38;;;;;;;-3.06;nan;101228.44;5066414;28;20028;-71
2022/12/21 05:55:32;;;;;;;62.60;25.15;;;;;;;-3.11;nan;101234.88;5070115;28;20028;-72
2022/12/21 05:57:57;;;;;;;67.63;26.02;;;;;;;-3.18;nan;101215.66;5064949;28;20024;-71
2022/12/21 06:00:22;;;;;;;63.83;24.95;;;;;;;-2.99;nan;101241.69;5070523;28;20051;-72
2022/12/21 06:02:48;;;;;;;64.97;25.58;;;;;;;-3.00;nan;101237.47;5071238;28;20028;-71
2022/12/21 06:05:13;;;;;;;64.75;24.92;;;;;;;-3.04;nan;101226.56;5061811;28;20023;-71
2022/12/21 06:07:39;;;;;;;63.00;25.25;;;;;;;-2.97;nan;101244.13;5065453;28;20466;-72
2022/12/21 06:10:05;;;;;;;61.85;24.10;;;;;;;-2.94;nan;101252.47;5067816;28;20031;-71
2022/12/21 06:12:32;;;;;;;66.03;24.80;;;;;;;-3.09;nan;101223.53;5063927;28;20032;-72
2022/12/21 06:14:57;;;;;;;63.42;24.92;;;;;;;-2.92;nan;101255.75;5067797;28;20028;-71
2022/12/21 06:17:25;;;;;;;64.13;24.00;;;;;;;-2.98;nan;101242.50;5050773;28;20024;-72
2022/12/21 06:19:50;;;;;;;60.80;24.15;;;;;;;-2.93;nan;101254.09;5061289;28;20500;-72
2022/12/21 06:22:16;;;;;;;63.97;23.92;;;;;;;-2.98;nan;101251.06;5064423;28;20030;-72
2022/12/21 06:24:41;;;;;;;57.92;23.92;;;;;;;-3.06;nan;101248.25;5068177;28;20032;-71
2022/12/21 06:27:06;;;;;;;63.90;25.50;;;;;;;-3.07;nan;101242.25;5064232;28;20032;-71
2022/12/21 06:29:32;;;;;;;62.90;25.35;;;;;;;-3.31;nan;101198.53;5046718;28;20028;-71
2022/12/21 06:31:57;;;;;;;63.13;24.52;;;;;;;-3.17;nan;101236.16;5059435;28;20448;-71
2022/12/21 06:34:22;;;;;;;58.88;24.15;;;;;;;-3.02;nan;101254.78;5060369;28;20024;-71
2022/12/21 06:36:48;;;;;;;59.63;22.52;;;;;;;-3.05;nan;101242.97;5066052;28;20024;-70
2022/12/21 06:39:13;;;;;;;58.15;22.17;;;;;;;-3.09;nan;101230.41;5058141;28;20113;-71
2022/12/21 06:41:38;;;;;;;59.15;22.50;;;;;;;-3.02;nan;101244.47;5041622;28;20048;-71
2022/12/21 06:44:04;;;;;;;59.83;23.00;;;;;;;-2.97;nan;101244.13;5059589;28;20029;-72
2022/12/21 06:46:29;;;;;;;50.20;21.23;;;;;;;-2.96;nan;101249.19;5045280;28;20103;-72
2022/12/21 06:48:55;;;;;;;54.03;21.88;;;;;;;-2.95;nan;101237.94;5068350;28;20029;-72
2022/12/21 06:51:23;;;;;;;56.58;21.88;;;;;;;-2.81;nan;101252.34;5064586;28;20032;-71
2022/12/21 06:53:50;;;;;;;50.45;20.67;;;;;;;-2.88;nan;101241.69;5053376;28;20455;-72
2022/12/21 06:56:18;;;;;;;49.92;20.30;;;;;;;-2.74;nan;101257.88;5066400;28;20552;-71
2022/12/21 06:58:44;;;;;;;52.13;21.13;;;;;;;-2.84;nan;101237.94;5068071;28;20048;-71
2022/12/21 07:01:16;;;;;;;52.63;20.13;;;;;;;-2.80;nan;101236.78;5049416;28;20060;-71
2022/12/21 07:03:41;;;;;;;50.53;20.10;;;;;;;-2.67;nan;101251.31;5064533;28;20032;-71
2022/12/21 07:06:08;;;;;;;55.13;22.05;;;;;;;-2.59;nan;101269.56;5061930;28;20024;-71
2022/12/21 07:08:34;;;;;;;53.63;20.35;;;;;;;-2.57;nan;101259.97;5055210;28;20475;-72
2022/12/21 07:11:01;;;;;;;53.75;20.52;;;;;;;-2.52;nan;101254.44;5042391;28;20035;-72
2022/12/21 07:13:27;;;;;;;52.20;21.25;;;;;;;-2.57;nan;101247.06;5042828;28;20095;-72
2022/12/21 07:15:54;;;;;;;52.97;21.40;;;;;;;-2.52;nan;101246.72;5059457;28;20109;-72
2022/12/21 07:18:20;;;;;;;53.15;22.42;;;;;;;-2.38;nan;101254.22;5053629;28;20016;-72
2022/12/21 07:20:45;;;;;;;54.58;21.48;;;;;;;-2.36;nan;101250.56;5048411;28;20111;-72
2022/12/21 07:23:11;;;;;;;51.42;20.77;;;;;;;-2.76;nan;101174.66;5066585;28;20104;-70
2022/12/21 07:25:36;;;;;;;51.42;21.05;;;;;;;-2.31;nan;101244.22;5046099;28;20020;-71
2022/12/21 07:28:02;;;;;;;50.40;20.80;;;;;;;-2.15;nan;101247.25;5044324;28;20390;-71
2022/12/21 07:30:27;;;;;;;57.25;22.17;;;;;;;-2.17;nan;101223.31;5063910;28;20062;-71
2022/12/21 07:32:53;;;;;;;54.20;20.60;;;;;;;-2.07;nan;101229.38;5063976;28;20387;-71
2022/12/21 07:35:23;;;;;;;58.50;22.48;;;;;;;-1.95;nan;101232.75;5067362;28;20463;-72
2022/12/21 07:37:50;;;;;;;50.42;20.40;;;;;;;-1.81;nan;101249.72;5065900;28;20036;-70
2022/12/21 07:40:16;;;;;;;54.70;21.63;;;;;;;-1.75;nan;101246.63;5069935;28;20048;-71
2022/12/21 07:42:45;;;;;;;50.33;21.45;;;;;;;-1.81;nan;101214.41;5061008;28;20029;-71
2022/12/21 07:45:11;;;;;;;66.38;21.33;;;;;;;-1.61;nan;101240.34;5067919;28;20043;-70
2022/12/21 07:47:36;;;;;;;61.58;23.38;;;;;;;-1.56;nan;101230.47;5045955;28;20025;-72
2022/12/21 07:50:03;;;;;;;61.67;22.90;;;;;;;-1.60;nan;101214.41;5052016;28;20028;-71
2022/12/21 07:52:30;;;;;;;58.05;23.52;;;;;;;-1.45;nan;101232.19;5066081;28;20082;-71
2022/12/21 07:54:56;;;;;;;56.25;22.30;;;;;;;-1.36;nan;101227.09;5068998;28;20021;-71
2022/12/21 07:57:21;;;;;;;56.35;21.77;;;;;;;-1.29;nan;101230.00;5067216;28;20033;-71
2022/12/21 07:59:46;;;;;;;61.50;22.75;;;;;;;;;;5070511;28;20053;-72
2022/12/21 08:02:12;;;;;;;57.67;22.63;;;;;;;;;;5069321;28;20070;-71
2022/12/21 08:04:37;;;;;;;56.83;22.03;;;;;;;;;;5050874;28;20278;-72
2022/12/21 08:07:02;;;;;;;54.97;21.73;;;;;;;;;;5050214;28;20397;-72
2022/12/21 08:09:27;;;;;;;51.70;20.57;;;;;;;;;;5051390;28;20032;-72
2022/12/21 08:11:52;;;;;;;52.57;21.00;;;;;;;;;;5067124;28;20386;-71
2022/12/21 08:14:18;;;;;;;53.13;21.05;;;;;;;;;;5065020;28;20506;-72
2022/12/21 08:16:43;;;;;;;53.88;21.38;;;;;;;;;;5038596;28;20509;-72
2022/12/21 08:19:08;;;;;;;58.65;21.80;;;;;;;;;;5061497;28;20033;-71
2022/12/21 08:21:34;;;;;;;49.95;20.52;;;;;;;;;;5048487;28;20028;-72
2022/12/21 08:23:59;;;;;;;51.97;21.93;;;;;;;;;;5067154;28;20031;-72
2022/12/21 08:26:24;;;;;;;54.77;21.60;;;;;;;;;;5065263;28;20017;-72
2022/12/21 08:28:50;;;;;;;54.50;21.10;;;;;;;;;;5065631;28;20361;-72
2022/12/21 08:31:17;;;;;;;57.17;21.77;;;;;;;;;;5061671;28;20265;-71
2022/12/21 08:33:43;;;;;;;56.22;21.90;;;;;;;;;;5049949;28;20020;-70
2022/12/21 08:36:14;;;;;;;59.10;22.42;;;;;;;0.00;nan;101200.84;5068290;28;20109;-71
2022/12/21 08:38:39;;;;;;;57.25;21.88;;;;;;;;;;5042131;28;20029;-72
2022/12/21 08:41:05;;;;;;;61.10;22.17;;;;;;;;;;5069840;28;20031;-72
2022/12/21 08:43:30;;;;;;;52.15;22.35;;;;;;;0.30;nan;101206.84;5063981;28;20523;-71
2022/12/21 08:45:56;;;;;;;53.90;22.70;;;;;;;0.38;nan;101199.16;5066563;28;20040;-72
2022/12/21 08:48:21;;;;;;;57.30;22.25;;;;;;;;;;5063817;28;20028;-72
2022/12/21 08:50:53;;;;;;;56.88;22.88;;;;;;;;;;5059885;28;20104;-72
2022/12/21 08:53:18;;;;;;;47.40;20.98;;;;;;;;;;5045423;28;20033;-71
2022/12/21 08:55:43;;;;;;;57.55;22.33;;;;;;;;;;5060849;28;20441;-72
2022/12/21 08:58:09;;;;;;;58.73;21.30;;;;;;;;;;5063909;28;20033;-73
2022/12/21 09:00:34;;;;;;;50.00;20.63;;;;;;;;;;5048863;28;20273;-72
2022/12/21 09:02:59;;;;;;;52.40;20.10;;;;;;;;;;5046041;28;20277;-72
2022/12/21 09:05:25;;;;;;;49.08;19.60;;;;;;;;;;5062439;28;20063;-72
2022/12/21 09:07:50;;;;;;;53.42;20.88;;;;;;;;;;5061761;28;20035;-72
2022/12/21 09:10:15;;;;;;;47.90;18.77;;;;;;;;;;5066387;28;20028;-71
2022/12/21 09:12:40;;;;;;;43.30;18.77;;;;;;;;;;5063775;28;20294;-71
2022/12/21 09:15:06;;;;;;;46.30;19.27;;;;;;;;;;5050358;28;20356;-71
2022/12/21 09:17:31;;;;;;;42.80;19.45;;;;;;;;;;5061388;28;20059;-71
2022/12/21 09:19:56;;;;;;;42.50;19.03;;;;;;;;;;5045725;28;20383;-72
2022/12/21 09:22:23;;;;;;;49.80;19.63;;;;;;;;;;5049731;28;20467;-71
2022/12/21 09:24:48;;;;;;;43.92;18.13;;;;;;;;;;5062221;28;20047;-72
2022/12/21 09:27:13;;;;;;;46.63;19.47;;;;;;;;;;5065532;28;20017;-71
2022/12/21 09:29:39;;;;;;;52.63;21.30;;;;;;;;;;5063387;28;20261;-72
2022/12/21 09:32:04;;;;;;;51.00;22.58;;;;;;;;;;5060445;28;20610;-71
2022/12/21 09:34:29;;;;;;;49.75;21.17;;;;;;;;;;5051074;28;20028;-71
2022/12/21 09:36:55;;;;;;;53.43;20.87;;;;;;;;;;5065596;28;20031;-71
2022/12/21 09:39:20;;;;;;;49.47;20.48;;;;;;;;;;5067488;28;20309;-72
2022/12/21 09:41:45;;;;;;;46.27;20.10;;;;;;;;;;5068064;28;20025;-72
2022/12/21 09:44:11;;;;;;;50.97;20.17;;;;;;;;;;5044259;28;20278;-72
2022/12/21 09:46:38;;;;;;;48.67;19.88;;;;;;;;;;5062842;28;20108;-73
2022/12/21 09:49:06;;;;;;;46.20;19.17;;;;;;;;;;5061769;28;20064;-72
2022/12/21 09:51:32;;;;;;;44.85;18.33;;;;;;;;;;5060697;28;20112;-72
2022/12/21 09:53:57;;;;;;;42.58;18.90;;;;;;;;;;5066462;28;20028;-72
2022/12/21 09:56:24;;;;;;;35.60;15.60;;;;;;;;;;5052724;28;20037;-72
2022/12/21 09:58:50;;;;;;;32.15;14.07;;;;;;;;;;5062210;28;20575;-72
2022/12/21 10:01:27;;;;;;;33.30;14.38;;;;;;;;;;5066052;28;20052;-71
2022/12/21 10:04:28;;;;;;;29.00;12.50;;;;;;;;;;5062740;28;20028;-72
2022/12/21 10:06:53;;;;;;;27.95;12.23;;;;;;;;;;5009842;28;20036;-73
2022/12/21 10:09:27;;;;;;;25.47;11.70;;;;;;;3.43;nan;101114.16;5009606;28;20030;-72
2022/12/21 10:12:20;;;;;;;25.95;11.77;;;;;;;3.50;nan;101112.53;5008344;28;20036;-73
2022/12/21 10:15:22;;;;;;;28.00;11.95;;;;;;;3.59;nan;101108.97;5007360;28;20506;-72
2022/12/21 10:18:12;;;;;;;25.45;11.95;;;;;;;3.70;nan;101107.81;5003071;28;20022;-73
2022/12/21 10:20:53;;;;;;;25.75;11.50;;;;;;;3.82;nan;101098.69;5007729;28;20036;-71
2022/12/21 10:23:25;;;;;;;23.35;11.35;;;;;;;3.89;nan;101104.06;4990003;28;20026;-72
2022/12/21 10:25:55;;;;;;;25.95;12.27;;;;;;;3.92;nan;101095.94;5008096;28;20041;-71
2022/12/21 10:28:46;;;;;;;25.48;12.15;;;;;;;4.09;nan;101103.72;5009207;28;20087;-71
2022/12/21 10:31:44;;;;;;;23.60;10.82;;;;;;;4.24;nan;101104.72;4986633;28;20480;-71
2022/12/21 10:34:24;;;;;;;24.83;11.02;;;;;;;4.30;nan;101096.22;5005977;28;20085;-71
2022/12/21 10:36:54;;;;;;;26.48;10.40;;;;;;;4.33;nan;101084.63;5008004;28;20030;-72
2022/12/21 10:39:20;;;;;;;19.98;9.75;;;;;;;4.35;nan;101078.25;4992253;28;20141;-72
2022/12/21 10:42:09;;;;;;;20.33;9.63;;;;;;;4.53;nan;101074.66;5059647;28;20884;-73
2022/12/21 10:44:40;;;;;;;20.37;9.23;;;;;;;4.64;nan;101087.31;5060323;28;20029;-71
2022/12/21 10:47:15;;;;;;;21.10;9.55;;;;;;;4.75;nan;101083.53;5060791;28;20119;-70
2022/12/21 10:49:43;;;;;;;19.85;8.90;;;;;;;4.60;nan;101042.50;5044013;28;20082;-71
2022/12/21 10:52:33;;;;;;;19.50;9.55;;;;;;;4.99;nan;101087.81;5063100;28;20020;-71
2022/12/21 10:54:59;;;;;;;22.35;10.30;;;;;;;5.08;nan;101090.22;5040692;28;21277;-70
2022/12/21 10:57:26;;;;;;;20.92;10.48;;;;;;;5.02;nan;101053.53;5062687;28;20501;-71
2022/12/21 10:59:51;;;;;;;20.88;9.50;;;;;;;5.14;nan;101061.78;5045830;28;20056;-70
2022/12/21 11:02:37;;;;;;;21.55;8.65;;;;;;;;;;5065383;28;20021;-70
2022/12/21 11:05:02;;;;;;;24.88;10.00;;;;;;;;;;5064769;28;20036;-70
2022/12/21 11:07:29;;;;;;;22.05;9.88;;;;;;;;;;5062288;28;20039;-70
2022/12/21 11:09:59;;;;;;;19.95;9.82;;;;;;;;;;5067579;28;20043;-70
2022/12/21 11:12:25;;;;;;;18.77;9.88;;;;;;;;;;5060144;28;20027;-69
2022/12/21 11:14:51;;;;;;;16.13;8.68;;;;;;;;;;5065319;28;20108;-70
2022/12/21 11:17:20;;;;;;;17.92;9.00;;;;;;;;;;5057954;28;20021;-70
2022/12/21 11:19:45;;;;;;;20.40;8.88;;;;;;;;;;5065606;28;20111;-70
2022/12/21 11:22:13;;;;;;;17.15;8.68;;;;;;;;;;5062959;28;20112;-70
2022/12/21 11:24:39;;;;;;;15.48;7.65;;;;;;;;;;5063754;28;20034;-70
2022/12/21 11:27:10;;;;;;;17.80;7.53;;;;;;;;;;5063135;28;20075;-69
2022/12/21 11:29:38;;;;;;;15.70;6.47;;;;;;;;;;5064940;28;20025;-68
2022/12/21 11:32:08;;;;;;;18.20;6.82;;;;;;;;;;5065882;28;20052;-70
2022/12/21 11:34:43;;;;;;;13.68;6.97;;;;;;;;;;5063557;28;20029;-71
2022/12/21 11:37:27;;;;;;;12.65;6.32;;;;;;;;;;5047192;28;20029;-68
2022/12/21 11:39:55;;;;;;;11.20;5.30;;;;;;;;;;5066320;28;20024;-69
2022/12/21 11:42:21;;;;;;;10.43;5.55;;;;;;;;;;5045657;28;20032;-73
2022/12/21 11:44:48;;;;;;;9.73;5.07;;;;;;;;;;5047214;28;20394;-74
2022/12/21 11:47:39;;;;;;;10.55;5.47;;;;;;;;;;5062687;28;20021;-73
2022/12/21 11:50:23;;;;;;;27.83;13.65;;;;;;;;;;5062271;28;20035;-72
2022/12/21 11:52:55;;;;;;;25.27;12.18;;;;;;;;;;5063865;28;20028;-71
2022/12/21 11:55:25;;;;;;;29.27;14.35;;;;;;;;;;5050683;28;20021;-71
2022/12/21 11:58:28;;;;;;;31.90;15.48;;;;;;;;;;5058249;28;20025;-70
2022/12/21 12:00:56;;;;;;;35.15;16.65;;;;;;;;;;4966821;28;20031;-74
2022/12/21 12:03:30;;;;;;;35.50;17.40;;;;;;;;;;4968927;28;20050;-73
2022/12/21 12:06:10;;;;;;;37.85;16.67;;;;;;;;;;4966849;28;20043;-73
2022/12/21 12:09:01;;;;;;;24.17;11.40;;;;;;;;;;4951506;28;20030;-73
2022/12/21 12:11:42;;;;;;;29.10;14.30;;;;;;;;;;4945728;28;20413;-73
2022/12/21 12:14:13;;;;;;;35.47;17.00;;;;;;;;;;4967344;28;20046;-73
2022/12/21 12:16:41;;;;;;;38.38;16.23;;;;;;;;;;4962128;28;20069;-73
2022/12/21 12:19:14;;;;;;;32.88;16.65;;;;;;;;;;4967024;28;20066;-73
2022/12/21 12:21:57;;;;;;;37.10;16.40;;;;;;;;;;4967337;28;20034;-71
2022/12/21 12:24:25;;;;;;;33.53;17.20;;;;;;;;;;4964100;28;20034;-71
2022/12/21 12:26:56;;;;;;;37.92;18.08;;;;;;;;;;4970638;28;20038;-71
2022/12/21 12:29:25;;;;;;;28.60;14.20;;;;;;;;;;4967897;28;20576;-71
2022/12/21 12:32:11;;;;;;;32.15;15.30;;;;;;;;;;5024886;28;20036;-71
2022/12/21 12:34:52;;;;;;;33.17;15.77;;;;;;;;;;5064030;28;20020;-71
2022/12/21 12:37:23;;;;;;;21.05;10.68;;;;;;;;;;5046606;28;20063;-71
2022/12/21 12:39:48;;;;;;;17.83;9.48;;;;;;;;;;5065954;28;20051;-71
2022/12/21 12:42:19;;;;;;;18.93;9.20;;;;;;;;;;5066199;28;20028;-71